• Join FlightAware (Why Join?)
  • Login
  • US Flag 
02:46PM EDT


 

Airport Tracker/Info


-or-


 

Live Flight TrackerFlight Track Log ✈ JZA7927 ✈ 16-May-2013 ✈ KBWI - CYYZ

Flight Track Log - Related Links

Times and Time Zones

All times are in EDT time to prevent confusion due to time zone crossing. See the JZA7927 flight status page for this flight to view local times or setup timezone preferences in your user account.

Time Position Orientation Groundspeed Altitude Reporting Facility
EDT Latitude Longitude Course Direction KTS MPH feet Rate Location/Type
06:13AM 39.2000 -76.6833 339° North 112 129 1,800  Level Potomac TRACON
06:14AM 39.2333 -76.6833 360° North 116 133 3,000 1,260 Climbing Potomac TRACON
06:15AM 39.2667 -76.7000 339° North 116 133 4,400 1,080 Climbing Potomac TRACON
06:15AM 39.3000 -76.7333 322° Northwest 132 152 5,100 780 Climbing Potomac TRACON
06:16AM 39.2000 -76.9903 270° West  Level FlightAware Approximate
06:17AM 39.2000 -77.0732 270° West  Level FlightAware Approximate
06:17AM 39.3167 -76.7667 303° West 157 181 6,000  Level Potomac TRACON
06:18AM 39.2044 -77.1522 339° North  Level FlightAware Approximate
06:18AM 39.3333 -76.8333 288° West 154 177 7,200  Level Potomac TRACON
06:18AM 39.3333 -76.8833 270° West 158 182 8,000 840 Climbing Potomac TRACON
06:19AM 39.3333 -76.9333 270° West 159 183 8,900 900 Climbing Potomac TRACON
06:22AM 39.3442 -77.0622 276° West 164 189 11,000 960 Climbing Washington Center
06:23AM 39.3497 -77.1214 277° West 164 189 12,000 900 Climbing Washington Center
06:24AM 39.3761 -77.1703 305° West 159 183 12,900 840 Climbing Washington Center
06:25AM 39.4194 -77.2114 324° Northwest 166 191 13,700 900 Climbing Washington Center
06:26AM 39.4625 -77.2556 322° Northwest 185 213 14,700 960 Climbing Washington Center
06:27AM 39.5017 -77.2994 319° Northwest 191 220 15,700 900 Climbing Washington Center
06:28AM 39.5739 -77.3783 320° Northwest 196 226 17,200 960 Climbing New York Center
06:29AM 39.6133 -77.4197 321° Northwest 196 226 18,300 1,020 Climbing New York Center
06:30AM 39.6592 -77.4592 326° Northwest 191 220 19,300 900 Climbing New York Center
06:31AM 39.7197 -77.4539 North 191 220 20,200 660 Climbing New York Center
06:32AM 39.7781 -77.4542 360° North 197 227 20,700 360 Climbing New York Center
06:33AM 39.8408 -77.4519 North 216 249 21,000 120 Climbing New York Center
06:34AM 39.9097 -77.4506 North 229 264 21,000  Level New York Center
06:35AM 39.9808 -77.4492 North 235 270 21,000  Level New York Center
06:36AM 40.0475 -77.4475 North 240 276 21,000  Level New York Center
06:37AM 40.1164 -77.4486 359° North 240 276 21,000  Level New York Center
06:38AM 40.1875 -77.4444 North 240 276 21,000  Level New York Center
06:39AM 40.2561 -77.4458 359° North 240 276 21,000  Level New York Center
06:40AM 40.3272 -77.4417 North 240 276 21,000 360 Level New York Center
06:41AM 40.3919 -77.4425 359° North 245 282 21,800 480 Climbing New York Center
06:42AM 40.4544 -77.4431 360° North 234 269 22,000 60 Climbing New York Center
06:43AM 40.5211 -77.4414 North 234 269 22,000  Level New York Center
06:44AM 40.5881 -77.4394 North 234 269 22,000  Level New York Center
06:45AM 40.6567 -77.4408 359° North 234 269 22,000  Level New York Center
06:46AM 40.7233 -77.4444 358° North 239 275 22,000  Level New York Center
06:47AM 40.7800 -77.4747 338° Northwest 221 254 22,000  Level New York Center
06:48AM 40.8364 -77.5078 336° Northwest 216 249 22,000  Level New York Center
06:49AM 40.8950 -77.5381 339° North 221 254 22,000  Level New York Center
06:50AM 40.9478 -77.5653 339° North 227 261 22,000  Level New York Center
06:51AM 41.0022 -77.5956 337° Northwest 227 261 22,000  Level New York Center
06:52AM 41.0608 -77.6261 339° North 227 261 22,000  Level New York Center
06:54AM 41.1561 -77.6792 337° Northwest 227 261 22,000  Level Cleveland Center
06:55AM 41.2108 -77.7069 339° North 221 254 22,000  Level Cleveland Center
06:56AM 41.2658 -77.7378 337° Northwest 211 243 22,000  Level Cleveland Center
06:57AM 41.3186 -77.7658 338° Northwest 211 243 22,000  Level Cleveland Center
06:58AM 41.3736 -77.7939 339° North 211 243 22,000  Level Cleveland Center
06:59AM 41.4264 -77.8219 338° Northwest 211 243 22,000  Level Cleveland Center
07:00AM 41.4814 -77.8531 337° Northwest 211 243 22,000  Level Cleveland Center
07:01AM 41.5322 -77.8814 337° Northwest 206 237 22,000  Level Cleveland Center
07:02AM 41.5869 -77.9069 341° North 206 237 22,000  Level Cleveland Center
07:03AM 41.6397 -77.9381 336° Northwest 206 237 22,000  Level Cleveland Center
07:04AM 41.6947 -77.9664 339° North 206 237 22,000  Level Cleveland Center
07:05AM 41.7475 -77.9947 338° Northwest 206 237 22,000  Level Cleveland Center
07:06AM 41.7981 -78.0233 337° Northwest 206 237 22,000  Level Cleveland Center
07:07AM 41.8467 -78.0494 338° Northwest 201 231 22,000  Level Cleveland Center
07:08AM 41.9078 -78.0833 338° Northwest 206 237 22,000  Level Cleveland Center
07:09AM 41.9625 -78.1117 339° North 206 237 22,000  Level Cleveland Center
07:10AM 42.0133 -78.1406 337° Northwest 206 237 22,000  Level Cleveland Center
07:11AM 42.0681 -78.1692 339° North 206 237 22,000  Level Cleveland Center
07:12AM 42.1144 -78.1956 337° Northwest 206 237 22,000  Level Cleveland Center
07:13AM 42.1756 -78.2297 337° Northwest 201 231 22,000  Level Cleveland Center
07:14AM 42.2283 -78.2586 338° Northwest 201 231 22,000  Level Cleveland Center
07:15AM 42.2831 -78.2875 339° North 201 231 22,000  Level Cleveland Center
07:16AM 42.3378 -78.3164 339° North 201 231 22,000  Level Cleveland Center
07:17AM 42.3864 -78.3428 338° Northwest 206 237 22,000  Level Cleveland Center
07:18AM 42.4411 -78.3717 339° North 206 237 22,000  Level Cleveland Center
07:19AM 42.4939 -78.4064 334° Northwest 206 237 22,000  Level Cleveland Center
07:20AM 42.5486 -78.4328 340° North 211 243 22,000 -180 Level Cleveland Center
07:21AM 42.6056 -78.4647 338° Northwest 211 243 21,700 -600 Descending Cleveland Center
07:22AM 42.6667 -78.5022 336° Northwest 222 255 20,900 -840 Descending Cleveland Center
07:23AM 42.7275 -78.5342 339° North 227 261 20,100 -840 Descending Cleveland Center
07:24AM 42.7908 -78.5717 337° Northwest 238 274 19,300 -840 Descending Cleveland Center
07:25AM 42.8539 -78.6036 340° North 238 274 18,500 -900 Descending Cleveland Center
07:26AM 42.9150 -78.6414 336° Northwest 238 274 17,600 -900 Descending Cleveland Center
07:27AM 42.9617 -78.7022 316° Northwest 233 268 16,800 -840 Descending Cleveland Center
07:30AM 43.0500 -78.8500 309° West 220 253 14,700 -900 Descending Toronto Center